createdAt,value
2019-02-17T00:02:04.841Z,0.93
2019-02-17T00:04:36.926Z,0.95
2019-02-17T00:07:08.098Z,0.85
2019-02-17T00:09:39.390Z,0.98
2019-02-17T00:12:10.867Z,0.90
2019-02-17T00:14:42.088Z,0.85
2019-02-17T00:17:13.769Z,0.82
2019-02-17T00:19:45.342Z,0.82
2019-02-17T00:22:16.342Z,0.74
2019-02-17T00:24:47.171Z,0.76
2019-02-17T00:27:18.343Z,0.75
2019-02-17T00:29:49.381Z,0.79
2019-02-17T00:32:20.514Z,0.77
2019-02-17T00:34:51.608Z,0.72
2019-02-17T00:37:22.663Z,0.72
2019-02-17T00:39:53.821Z,0.72
2019-02-17T00:42:24.839Z,0.69
2019-02-17T00:44:55.956Z,0.72
2019-02-17T00:47:27.243Z,0.72
2019-02-17T00:49:58.389Z,0.78
2019-02-17T00:52:29.474Z,0.90
2019-02-17T00:55:00.582Z,0.97
2019-02-17T00:57:33.271Z,1.22
2019-02-17T01:00:07.585Z,1.22
2019-02-17T01:02:38.362Z,1.44
2019-02-17T01:05:09.228Z,1.64
2019-02-17T01:07:40.442Z,1.64
2019-02-17T01:10:11.968Z,1.64
2019-02-17T01:12:42.943Z,1.67
2019-02-17T01:15:13.923Z,1.62
2019-02-17T01:17:45.673Z,1.54
2019-02-17T01:20:16.579Z,1.50
2019-02-17T01:22:47.351Z,1.26
2019-02-17T01:25:19.401Z,1.40
2019-02-17T01:27:50.666Z,1.27
2019-02-17T01:30:21.982Z,1.27
2019-02-17T01:32:52.791Z,1.24
2019-02-17T01:35:24.144Z,1.24
2019-02-17T01:37:55.824Z,1.23
2019-02-17T01:40:27.104Z,1.21
2019-02-17T01:42:58.598Z,1.14
2019-02-17T01:45:29.670Z,1.03
2019-02-17T01:48:01.383Z,1.06
2019-02-17T01:50:32.559Z,0.96
2019-02-17T01:53:04.043Z,0.92
2019-02-17T01:55:35.187Z,0.91
2019-02-17T01:58:06.031Z,0.88
2019-02-17T02:00:37.120Z,0.87
2019-02-17T02:03:08.903Z,0.82
2019-02-17T02:05:40.614Z,0.82
2019-02-17T02:08:11.708Z,0.76
2019-02-17T02:10:43.319Z,0.74
2019-02-17T02:13:14.297Z,0.64
2019-02-17T02:15:45.418Z,0.58
2019-02-17T02:18:16.546Z,0.58
2019-02-17T02:20:48.059Z,0.61
2019-02-17T02:23:18.879Z,0.69
2019-02-17T02:25:50.422Z,0.63
2019-02-17T02:28:21.039Z,0.69
2019-02-17T02:30:51.987Z,0.67
2019-02-17T02:33:22.573Z,0.68
2019-02-17T02:35:53.810Z,0.60
2019-02-17T02:38:24.579Z,0.75
2019-02-17T02:40:55.740Z,0.78
2019-02-17T02:43:26.882Z,0.78
2019-02-17T02:45:58.201Z,0.80
2019-02-17T02:48:29.283Z,0.75
2019-02-17T02:51:00.382Z,0.69
2019-02-17T02:53:31.342Z,0.71
2019-02-17T02:56:02.325Z,0.70
2019-02-17T02:58:32.943Z,0.71
2019-02-17T03:01:05.526Z,0.70
2019-02-17T03:03:37.025Z,0.69
2019-02-17T03:06:09.466Z,0.69
2019-02-17T03:08:40.826Z,0.58
2019-02-17T03:11:11.946Z,0.66
2019-02-17T03:13:43.180Z,0.60
2019-02-17T03:16:14.513Z,0.58
2019-02-17T03:18:45.789Z,0.61
2019-02-17T03:21:16.510Z,0.68
2019-02-17T03:23:47.335Z,0.83
2019-02-17T03:26:18.823Z,0.83
2019-02-17T03:28:49.546Z,0.88
2019-02-17T03:31:21.589Z,0.78
2019-02-17T03:33:52.916Z,0.93
2019-02-17T03:36:24.338Z,0.90
2019-02-17T03:38:55.402Z,0.95
2019-02-17T03:41:26.263Z,0.90
2019-02-17T03:43:57.965Z,0.85
2019-02-17T03:46:29.400Z,0.82
2019-02-17T03:49:00.018Z,0.77
2019-02-17T03:51:32.351Z,0.77
2019-02-17T03:54:03.634Z,0.74
2019-02-17T03:56:34.428Z,0.79
2019-02-17T03:59:05.259Z,0.88
2019-02-17T04:01:36.667Z,0.95
2019-02-17T04:04:07.618Z,1.05
2019-02-17T04:06:38.986Z,1.17
2019-02-17T04:09:09.910Z,1.25
2019-02-17T04:11:40.921Z,1.30
2019-02-17T04:14:11.823Z,1.31
2019-02-17T04:16:43.323Z,1.32
2019-02-17T04:19:14.674Z,1.41
2019-02-17T04:21:45.888Z,1.48
2019-02-17T04:24:16.922Z,1.51
2019-02-17T04:26:51.300Z,1.51
2019-02-17T04:29:22.236Z,1.46
2019-02-17T04:31:52.883Z,1.35
2019-02-17T04:34:23.505Z,1.32
2019-02-17T04:36:55.278Z,1.02
2019-02-17T04:39:26.476Z,1.02
2019-02-17T04:41:57.105Z,1.06
2019-02-17T04:44:28.567Z,0.99
2019-02-17T04:46:59.825Z,0.87
2019-02-17T04:49:30.704Z,0.87
2019-02-17T04:52:01.991Z,0.89
2019-02-17T04:54:33.319Z,0.82
2019-02-17T04:57:04.284Z,0.78
2019-02-17T04:59:35.350Z,0.74
2019-02-17T05:02:06.364Z,0.65
2019-02-17T05:04:37.381Z,0.71
2019-02-17T05:07:08.778Z,0.79
2019-02-17T05:09:40.304Z,0.58
2019-02-17T05:12:11.277Z,0.58
2019-02-17T05:14:42.778Z,0.77
2019-02-17T05:17:13.590Z,0.83
2019-02-17T05:19:44.918Z,0.85
2019-02-17T05:22:15.650Z,1.01
2019-02-17T05:24:46.676Z,1.01
2019-02-17T05:27:17.791Z,1.12
2019-02-17T05:29:48.813Z,1.13
2019-02-17T05:32:20.128Z,1.17
2019-02-17T05:34:50.820Z,1.07
2019-02-17T05:37:22.176Z,1.07
2019-02-17T05:39:53.481Z,1.01
2019-02-17T05:42:24.307Z,0.86
2019-02-17T05:44:55.329Z,0.88
2019-02-17T05:47:26.527Z,0.80
2019-02-17T05:49:59.379Z,0.80
2019-02-17T05:52:31.897Z,0.77
2019-02-17T05:55:03.670Z,0.79
2019-02-17T05:57:34.467Z,0.75
2019-02-17T06:00:08.597Z,0.71
2019-02-17T06:02:39.759Z,0.73
2019-02-17T06:05:11.438Z,0.66
2019-02-17T06:07:42.552Z,0.61
2019-02-17T06:10:13.507Z,0.56
2019-02-17T06:12:44.722Z,0.56
2019-02-17T06:15:16.290Z,0.49
2019-02-17T06:17:48.021Z,0.45
2019-02-17T06:20:19.087Z,0.39
2019-02-17T06:22:50.056Z,0.28
2019-02-17T06:25:21.030Z,0.28
2019-02-17T06:27:52.448Z,0.38
2019-02-17T06:30:23.519Z,0.35
2019-02-17T06:32:54.919Z,0.35
2019-02-17T06:35:25.616Z,0.39
2019-02-17T06:37:56.349Z,0.33
2019-02-17T06:40:26.936Z,0.22
2019-02-17T06:42:58.102Z,0.23
2019-02-17T06:45:29.486Z,0.16
2019-02-17T06:48:00.701Z,0.29
2019-02-17T06:50:32.853Z,0.31
2019-02-17T06:53:04.061Z,0.30
2019-02-17T06:55:36.739Z,0.34
2019-02-17T06:58:07.638Z,0.37
2019-02-17T07:00:40.139Z,0.48
2019-02-17T07:03:11.581Z,0.54
2019-02-17T07:05:44.207Z,0.62
2019-02-17T07:08:15.225Z,0.72
2019-02-17T07:10:45.953Z,0.79
2019-02-17T07:13:17.025Z,0.93
2019-02-17T07:15:50.147Z,0.93
2019-02-17T07:18:21.405Z,0.99
2019-02-17T07:20:52.821Z,1.08
2019-02-17T07:23:23.538Z,1.21
2019-02-17T07:25:54.619Z,1.26
2019-02-17T07:28:25.701Z,1.26
2019-02-17T07:30:56.663Z,1.45
2019-02-17T07:33:28.337Z,1.63
2019-02-17T07:35:59.514Z,1.63
2019-02-17T07:38:30.985Z,1.71
2019-02-17T07:41:02.390Z,1.78
2019-02-17T07:43:32.863Z,1.93
2019-02-17T07:46:03.909Z,2.05
2019-02-17T07:48:35.565Z,2.11
2019-02-17T07:51:06.818Z,2.21
2019-02-17T07:53:37.405Z,2.36
2019-02-17T07:56:07.739Z,2.44
2019-02-17T07:58:38.247Z,2.52
2019-02-17T08:01:08.799Z,2.51
2019-02-17T08:03:40.481Z,2.73
2019-02-17T08:06:12.099Z,2.84
2019-02-17T08:08:43.686Z,2.92
2019-02-17T08:11:18.730Z,3.04
2019-02-17T08:13:55.078Z,3.17
2019-02-17T08:16:32.716Z,3.33
2019-02-17T08:19:08.784Z,3.47
2019-02-17T08:21:40.216Z,3.59
2019-02-17T08:24:18.549Z,3.75
2019-02-17T08:26:59.113Z,3.93
2019-02-17T08:29:39.712Z,3.97
2019-02-17T08:32:14.559Z,4.28
2019-02-17T08:34:45.423Z,4.50
2019-02-17T08:37:17.921Z,4.76
2019-02-17T08:39:50.177Z,4.97
2019-02-17T08:42:22.360Z,5.13
2019-02-17T08:44:52.920Z,5.27
2019-02-17T08:47:23.619Z,5.36
2019-02-17T08:49:54.300Z,5.55
2019-02-17T08:52:24.878Z,5.65
2019-02-17T08:54:55.436Z,5.79
2019-02-17T08:57:26.142Z,5.89
2019-02-17T08:59:57.465Z,5.99
2019-02-17T09:02:28.143Z,6.12
2019-02-17T09:04:58.997Z,6.28
2019-02-17T09:07:30.047Z,6.37
2019-02-17T09:10:01.139Z,6.46
2019-02-17T09:12:31.604Z,6.56
2019-02-17T09:15:02.701Z,6.71
2019-02-17T09:17:33.774Z,6.84
2019-02-17T09:20:05.110Z,6.94
2019-02-17T09:22:35.878Z,7.01
2019-02-17T09:25:08.983Z,7.07
2019-02-17T09:27:39.588Z,7.28
2019-02-17T09:30:13.176Z,7.44
2019-02-17T09:32:43.938Z,7.52
2019-02-17T09:35:14.349Z,7.64
2019-02-17T09:37:45.457Z,7.75
2019-02-17T09:40:18.325Z,7.84
2019-02-17T09:42:49.360Z,7.91
2019-02-17T09:45:20.185Z,7.98
2019-02-17T09:47:50.612Z,8.07
2019-02-17T09:50:24.464Z,8.16
2019-02-17T09:52:55.152Z,8.14
2019-02-17T09:55:25.883Z,8.27
2019-02-17T09:57:56.578Z,8.33
2019-02-17T10:00:28.160Z,8.41
2019-02-17T10:02:58.921Z,8.54
2019-02-17T10:05:31.627Z,8.72
2019-02-17T10:08:11.102Z,8.80
2019-02-17T10:10:47.044Z,8.82
2019-02-17T10:13:18.821Z,8.98
2019-02-17T10:15:49.466Z,9.01
2019-02-17T10:18:27.822Z,9.12
2019-02-17T10:21:00.469Z,9.25
2019-02-17T10:23:33.800Z,9.33
2019-02-17T10:26:04.186Z,9.48
2019-02-17T10:28:42.004Z,9.50
2019-02-17T10:31:07.942Z,9.56
2019-02-17T10:33:38.623Z,9.62
2019-02-17T10:36:09.047Z,9.66
2019-02-17T10:38:39.685Z,9.77
2019-02-17T10:41:10.400Z,9.81
2019-02-17T10:43:40.981Z,9.93
2019-02-17T10:46:12.613Z,10.08
2019-02-17T10:48:43.353Z,10.20
2019-02-17T10:51:13.644Z,10.22
2019-02-17T10:53:43.959Z,10.24
2019-02-17T10:56:16.414Z,10.28
2019-02-17T10:58:47.530Z,10.36
2019-02-17T11:01:18.100Z,10.45
2019-02-17T11:03:52.230Z,10.50
2019-02-17T11:06:22.723Z,10.59
2019-02-17T11:08:53.587Z,10.68
2019-02-17T11:11:24.209Z,10.70
2019-02-17T11:13:54.920Z,10.82
2019-02-17T11:16:25.167Z,10.87
2019-02-17T11:18:55.750Z,10.93
2019-02-17T11:21:26.185Z,10.94
2019-02-17T11:23:57.019Z,11.04
2019-02-17T11:26:28.279Z,11.11
2019-02-17T11:28:58.986Z,11.21
2019-02-17T11:31:29.747Z,11.28
2019-02-17T11:34:00.376Z,11.35
2019-02-17T11:36:31.511Z,11.43
2019-02-17T11:39:01.913Z,11.53
2019-02-17T11:41:33.578Z,11.54
2019-02-17T11:44:04.127Z,11.61
2019-02-17T11:46:34.519Z,11.72
2019-02-17T11:49:05.468Z,11.73
2019-02-17T11:51:36.657Z,11.72
2019-02-17T11:54:10.462Z,11.87
2019-02-17T11:56:41.658Z,11.94
2019-02-17T11:59:12.714Z,12.09
2019-02-17T12:01:43.863Z,12.13
2019-02-17T12:04:15.480Z,12.15
2019-02-17T12:06:47.071Z,12.18
2019-02-17T12:09:18.412Z,12.16
2019-02-17T12:11:49.338Z,12.20
2019-02-17T12:14:20.260Z,12.24
2019-02-17T12:16:51.152Z,12.24
2019-02-17T12:19:22.785Z,12.21
2019-02-17T12:21:55.497Z,12.31
2019-02-17T12:24:28.408Z,12.35
2019-02-17T12:27:00.773Z,12.32
2019-02-17T12:29:33.063Z,12.34
2019-02-17T12:32:04.134Z,12.39
2019-02-17T12:34:35.282Z,12.37
2019-02-17T12:37:06.197Z,12.36
2019-02-17T12:39:37.289Z,12.38
2019-02-17T12:42:07.844Z,12.37
2019-02-17T12:44:39.414Z,12.25
2019-02-17T12:47:10.612Z,12.28
2019-02-17T12:49:41.417Z,12.34
2019-02-17T12:52:12.307Z,12.38
2019-02-17T12:54:43.401Z,12.36
2019-02-17T12:57:14.967Z,12.42
2019-02-17T12:59:46.078Z,12.44
2019-02-17T13:02:17.998Z,12.45
2019-02-17T13:04:48.892Z,12.44
2019-02-17T13:07:20.020Z,12.42
2019-02-17T13:09:50.805Z,12.40
2019-02-17T13:12:21.915Z,12.41
2019-02-17T13:14:52.772Z,12.40
2019-02-17T13:17:23.341Z,12.44
2019-02-17T13:19:55.688Z,12.36
2019-02-17T13:22:27.384Z,12.34
2019-02-17T13:24:58.449Z,12.38
2019-02-17T13:27:29.324Z,12.47
2019-02-17T13:30:00.239Z,12.55
2019-02-17T13:32:31.375Z,12.59
2019-02-17T13:35:02.419Z,12.64
2019-02-17T13:37:33.147Z,12.62
2019-02-17T13:40:06.661Z,12.59
2019-02-17T13:42:38.084Z,12.61
2019-02-17T13:45:11.736Z,12.58
2019-02-17T13:47:43.315Z,12.59
2019-02-17T13:50:16.157Z,12.56
2019-02-17T13:52:47.450Z,12.53
2019-02-17T13:55:18.318Z,12.50
2019-02-17T13:57:52.326Z,12.46
2019-02-17T14:00:23.316Z,12.44
2019-02-17T14:02:54.350Z,12.27
2019-02-17T14:05:25.983Z,12.24
2019-02-17T14:07:57.258Z,12.25
2019-02-17T14:10:28.102Z,12.22
2019-02-17T14:12:59.273Z,12.23
2019-02-17T14:15:30.242Z,12.27
2019-02-17T14:18:01.504Z,12.27
2019-02-17T14:20:32.685Z,12.25
2019-02-17T14:23:03.899Z,12.24
2019-02-17T14:25:35.290Z,12.22
2019-02-17T14:28:06.699Z,12.21
2019-02-17T14:30:37.932Z,12.14
2019-02-17T14:33:09.158Z,12.10
2019-02-17T14:35:40.436Z,12.09
2019-02-17T14:38:12.166Z,12.08
2019-02-17T14:40:43.626Z,12.09
2019-02-17T14:43:14.797Z,12.07
2019-02-17T14:45:45.821Z,12.05
2019-02-17T14:48:16.493Z,12.02
2019-02-17T14:50:48.188Z,12.00
2019-02-17T14:53:19.087Z,12.01
2019-02-17T14:55:50.236Z,11.95
2019-02-17T14:58:38.200Z,11.91
2019-02-17T15:01:52.567Z,11.85
2019-02-17T15:04:55.206Z,11.80
2019-02-17T15:07:40.789Z,11.67
2019-02-17T15:10:50.249Z,11.53
2019-02-17T15:13:49.374Z,11.39
2019-02-17T15:16:56.111Z,11.22
2019-02-17T15:19:46.016Z,11.02
2019-02-17T15:22:25.718Z,10.84
2019-02-17T15:24:56.266Z,10.70
2019-02-17T15:27:26.839Z,10.60
2019-02-17T15:29:57.366Z,10.51
2019-02-17T15:32:28.269Z,10.36
2019-02-17T15:34:58.984Z,10.27
2019-02-17T15:37:36.959Z,10.18
2019-02-17T15:40:32.296Z,10.08
2019-02-17T15:43:33.318Z,9.98
2019-02-17T15:46:47.127Z,9.95
2019-02-17T15:49:51.690Z,9.89
2019-02-17T15:52:57.423Z,9.82
2019-02-17T15:55:35.855Z,9.76
2019-02-17T15:58:35.499Z,9.58
2019-02-17T16:01:36.161Z,9.43
2019-02-17T16:04:45.048Z,9.29
2019-02-17T16:07:56.815Z,9.24
2019-02-17T16:10:40.046Z,9.15
2019-02-17T16:13:10.927Z,8.89
2019-02-17T16:15:42.208Z,8.84
2019-02-17T16:18:15.999Z,8.82
2019-02-17T16:21:03.525Z,8.82
2019-02-17T16:24:11.205Z,8.72
2019-02-17T16:26:55.606Z,8.61
2019-02-17T16:29:43.274Z,8.63
2019-02-17T16:32:23.018Z,8.52
2019-02-17T16:35:09.907Z,8.30
2019-02-17T16:38:05.183Z,8.16
2019-02-17T16:40:41.535Z,8.08
2019-02-17T16:43:15.585Z,7.94
2019-02-17T16:45:49.733Z,7.73
2019-02-17T16:48:27.607Z,7.59
2019-02-17T16:51:02.702Z,7.50
2019-02-17T16:53:33.526Z,7.35
2019-02-17T16:56:22.216Z,7.33
2019-02-17T16:59:27.352Z,7.33
2019-02-17T17:02:23.263Z,7.27
2019-02-17T17:05:23.224Z,7.19
2019-02-17T17:11:44.735Z,7.08
2019-02-17T17:14:43.727Z,6.96
2019-02-17T17:17:52.576Z,6.80
2019-02-17T17:20:59.234Z,6.67
2019-02-17T17:23:56.504Z,6.63
2019-02-17T17:26:59.986Z,6.43
2019-02-17T17:30:02.047Z,6.26
2019-02-17T17:33:24.299Z,6.24
2019-02-17T17:36:17.519Z,6.24
2019-02-17T17:39:17.967Z,6.22
2019-02-17T17:41:50.433Z,6.07
2019-02-17T17:44:23.409Z,5.94
2019-02-17T17:46:54.766Z,5.94
2019-02-17T17:49:28.010Z,5.87
2019-02-17T17:51:58.851Z,5.84
2019-02-17T17:54:29.687Z,5.87
2019-02-17T17:57:00.445Z,5.85
2019-02-17T17:59:31.048Z,5.79
2019-02-17T18:02:01.976Z,5.77
2019-02-17T18:04:32.965Z,5.68
2019-02-17T18:07:03.975Z,5.62
2019-02-17T18:09:34.888Z,5.56
2019-02-17T18:12:06.359Z,5.47
2019-02-17T18:14:38.060Z,5.42
2019-02-17T18:17:10.514Z,5.36
2019-02-17T18:19:42.321Z,5.35
2019-02-17T18:22:23.362Z,5.28
2019-02-17T18:25:00.647Z,5.22
2019-02-17T18:27:54.750Z,5.19
2019-02-17T18:30:32.199Z,5.13
2019-02-17T18:33:03.811Z,5.14
2019-02-17T18:35:35.299Z,5.01
2019-02-17T18:38:06.419Z,4.94
2019-02-17T18:40:44.743Z,4.88
2019-02-17T18:43:11.266Z,4.87
2019-02-17T18:45:43.742Z,4.81
2019-02-17T18:48:15.702Z,4.81
2019-02-17T18:51:00.337Z,4.75
2019-02-17T18:53:38.716Z,4.72
2019-02-17T18:56:10.319Z,4.69
2019-02-17T18:58:46.328Z,4.64
2019-02-17T19:01:19.643Z,4.55
2019-02-17T19:03:55.230Z,4.50
2019-02-17T19:06:35.930Z,4.48
2019-02-17T19:09:20.861Z,4.36
2019-02-17T19:11:55.570Z,4.19
2019-02-17T19:14:29.711Z,4.11
2019-02-17T19:17:05.579Z,4.09
2019-02-17T19:19:43.926Z,4.09
2019-02-17T19:22:29.939Z,4.13
2019-02-17T19:25:11.696Z,4.10
2019-02-17T19:27:51.847Z,4.06
2019-02-17T19:30:28.376Z,4.03
2019-02-17T19:33:03.866Z,3.91
2019-02-17T19:35:42.269Z,3.80
2019-02-17T19:38:17.082Z,3.73
2019-02-17T19:40:54.004Z,3.73
2019-02-17T19:43:29.965Z,3.72
2019-02-17T19:46:06.012Z,3.62
2019-02-17T19:48:42.551Z,3.59
2019-02-17T19:51:18.205Z,3.55
2019-02-17T19:53:53.055Z,3.51
2019-02-17T19:56:28.037Z,3.52
2019-02-17T19:58:59.989Z,3.51
2019-02-17T20:01:31.499Z,3.40
2019-02-17T20:04:27.495Z,3.38
2019-02-17T20:07:11.302Z,3.34
2019-02-17T20:09:45.198Z,3.27
2019-02-17T20:12:19.379Z,3.23
2019-02-17T20:14:51.113Z,3.16
2019-02-17T20:17:23.320Z,3.08
2019-02-17T20:19:54.518Z,3.04
2019-02-17T20:22:26.801Z,2.99
2019-02-17T20:24:58.685Z,2.92
2019-02-17T20:27:30.717Z,2.90
2019-02-17T20:30:03.622Z,2.86
2019-02-17T20:32:35.001Z,2.77
2019-02-17T20:35:09.096Z,2.76
2019-02-17T20:37:42.450Z,2.78
2019-02-17T20:40:15.272Z,2.72
2019-02-17T20:42:47.051Z,2.74
2019-02-17T20:45:22.827Z,2.68
2019-02-17T20:47:55.761Z,2.62
2019-02-17T20:50:34.141Z,2.57
2019-02-17T20:53:09.368Z,2.52
2019-02-17T20:56:02.862Z,2.43
2019-02-17T20:58:46.120Z,2.25
2019-02-17T21:01:21.505Z,2.30
2019-02-17T21:03:53.579Z,2.29
2019-02-17T21:06:24.517Z,2.26
2019-02-17T21:08:58.522Z,2.31
2019-02-17T21:11:53.054Z,2.30
2019-02-17T21:15:01.876Z,2.26
2019-02-17T21:17:54.908Z,2.22
2019-02-17T21:20:57.195Z,2.17
2019-02-17T21:24:14.095Z,2.12
2019-02-17T21:27:22.641Z,2.10
2019-02-17T21:30:33.923Z,2.03
2019-02-17T21:33:25.160Z,1.91
2019-02-17T21:36:00.124Z,1.84
2019-02-17T21:38:58.896Z,1.83
2019-02-17T21:41:40.465Z,1.82
2019-02-17T21:44:19.465Z,1.85
2019-02-17T21:47:09.099Z,1.83
2019-02-17T21:49:45.699Z,1.78
2019-02-17T21:52:32.487Z,1.78
2019-02-17T21:55:08.566Z,1.74
2019-02-17T21:57:39.458Z,1.84
2019-02-17T22:00:15.075Z,1.78
2019-02-17T22:02:46.404Z,1.68
2019-02-17T22:05:17.772Z,1.65
2019-02-17T22:07:52.561Z,1.65
2019-02-17T22:10:25.416Z,1.64
2019-02-17T22:12:57.354Z,1.62
2019-02-17T22:15:28.407Z,1.61
2019-02-17T22:17:59.808Z,1.62
2019-02-17T22:20:30.648Z,1.63
2019-02-17T22:23:01.850Z,1.49
2019-02-17T22:25:32.896Z,1.45
2019-02-17T22:28:04.171Z,1.40
2019-02-17T22:30:35.246Z,1.43
2019-02-17T22:33:06.444Z,1.40
2019-02-17T22:35:37.561Z,1.45
2019-02-17T22:38:08.818Z,1.45
2019-02-17T22:40:40.651Z,1.47
2019-02-17T22:43:11.771Z,1.46
2019-02-17T22:45:43.053Z,1.47
2019-02-17T22:48:14.970Z,1.46
2019-02-17T22:50:46.933Z,1.43
2019-02-17T22:53:18.690Z,1.43
2019-02-17T22:55:50.722Z,1.21
2019-02-17T22:58:21.792Z,1.37
2019-02-17T23:00:54.415Z,0.99
2019-02-17T23:03:27.845Z,0.99
2019-02-17T23:05:58.496Z,1.12
2019-02-17T23:08:29.403Z,1.17
2019-02-17T23:11:00.917Z,1.17
2019-02-17T23:13:31.805Z,1.10
2019-02-17T23:16:03.109Z,1.06
2019-02-17T23:18:34.066Z,0.89
2019-02-17T23:21:05.316Z,0.89
2019-02-17T23:23:36.141Z,0.92
2019-02-17T23:26:07.144Z,0.88
2019-02-17T23:28:38.141Z,0.82
2019-02-17T23:31:09.279Z,0.61
2019-02-17T23:33:40.450Z,0.61
2019-02-17T23:36:13.033Z,0.81
2019-02-17T23:38:44.203Z,0.82
2019-02-17T23:41:15.251Z,0.56
2019-02-17T23:43:46.297Z,0.11
2019-02-17T23:46:17.086Z,0.13
2019-02-17T23:48:48.226Z,0.25
2019-02-17T23:51:19.238Z,0.43
2019-02-17T23:53:50.471Z,0.52
2019-02-17T23:56:21.078Z,0.57
2019-02-17T23:58:52.144Z,0.57
